Архив погоды в Клину

Метеограмма Клин
Понедельник, 22 Октября
Время местн. Темп Ветер Видим Явления Облачность нижн/средн/верх Атм. давл. Влжн Точка росы ВНГО R Сост. почвы Tg s
Напр Скр Прв ур.ст ур.м изм
09:00 +3.9° Ю,Ю-З 2 - 10 км - облачно 753 769 -0.5 71% -0.8° более 2.5 км 0 Влажная (без луж) - -
06:00 +4.4° Ю,Ю-З 2 - 10 км - ясно 754 769 -0.8 73% более 2.5 км - - - -
03:00 +5.5° Ю-З 1 - 10 км - облачно 754 770 -0.5 71% +0.7° 1 км - - - -
00:00 +5.7° штиль 0 - 10 км - облачно 755 770 -0.2 79% +2.3° 1 км - - - -
Воскресенье, 21 Октября
Время местн. Темп Ветер Видим Явления Облачность нижн/средн/верх Атм. давл. Влжн Точка росы ВНГО R Сост. почвы Tg s
Напр Скр Прв ур.ст ур.м изм
18:00 +7.2° Ю 1 - 10 км - облачно 755 770 0 73% +2.6° 1 км - - - -
15:00 +7.8° Ю-З 1 - 10 км - преимущественно облачно 755 770 -0.2 65% +1.7° 1 км - - - -
12:00 +7.5° штиль 0 - 10 км - преимущественно облачно 755 770 +0.8 73% +2.9° 1 км - - - -
09:00 +4.7° штиль 0 - 10 км - облачно 754 770 +0.8 87% +2.8° 1 км 0 Влажная (без луж) - -
06:00 +3.7° штиль 0 - 10 км - облачно 753 769 +0.5 91% +2.4° 1 км - - - -
03:00 +3.2° штиль 0 - 10 км - облачно 753 768 +0.2 92% +2.1° 1 км - - - -
00:00 +1.6° штиль 0 - 10 км - преимущественно облачно 753 768 +0.5 92% +0.4° 1.5 км - - - -
Суббота, 20 Октября
Время местн. Темп Ветер Видим Явления Облачность нижн/средн/верх Атм. давл. Влжн Точка росы ВНГО R Сост. почвы Tg s
Напр Скр Прв ур.ст ур.м изм
21:00 +4.8° штиль 0 - 10 км - преимущественно облачно 752 768 +0.4 81% +1.9° 1.5 км 0 - - -
18:00 +6.7° штиль 0 - 10 км - облачно 752 767 0 71% +1.8° 1 км - - - -
15:00 +7.7° С-З 1 - 10 км - облачно 752 767 +0.1 65% +1.6° 1 км - - - -
12:00 +7° С,С-З 1 - 10 км - облачно 752 767 +0.9 74% +2.6° 1 км - - - -
09:00 +2.7° З 1 - 10 км - преимущественно облачно 751 766 +0.6 96% +2.1° 1 км 0 Влажная (без луж) - -
06:00 -1.2° штиль 0 - 10 км - ясно 750 766 +0.7 96% -1.7° более 2.5 км - - - -
03:00 +0.5° З,С-З 1 - 10 км - ясно 749 765 +0.3 96% -0.1° более 2.5 км - - - -
00:00 +4° З 1 - 10 км - ясно 749 765 +0.5 94% +3.1° более 2.5 км - - - -
Пятница, 19 Октября
Время местн. Темп Ветер Видим Явления Облачность нижн/средн/верх Атм. давл. Влжн Точка росы ВНГО R Сост. почвы Tg s
Напр Скр Прв ур.ст ур.м изм
21:00 +5.3° З 1 - 4 км дымка переменная облачность 749 764 +0.8 91% +3.9° более 2.5 км 0 - - -
18:00 +11.5° С-З 2 - 10 км - облачно 748 763 +0.6 79% +8° 1 км - - - -
15:00 +14.8° З,С-З 1 - 10 км - преимущественно облачно 747 762 +0.2 66% +8.6° - - - - -
12:00 +13.9° З 2 - 10 км - переменная облачность 747 762 +0.1 73% +9.2° более 2.5 км - - - -
09:00 +9.8° З 1 - 10 км дымка переменная облачность 747 762 0 91% +8.4° более 2.5 км 0 Влажная (без луж) - -
06:00 +7.3° Ю 1 - 4 км дымка ясно 747 762 -0.9 92% +6.1° более 2.5 км - - - -
03:00 +8.2° Ю-В 1 - 10 км - ясно 748 763 -0.7 89% +6.5° более 2.5 км - - - -